Kaltag, AK

3:28 PM AKDT on August 29, 2015 (GMT -0800)
Kaltag | | Change Station
CLOSE
Current Station
Airport
Location: Kaltag,
Elevation: 200 ft
Nearby Weather Stations

Elev 200 ft 64.32 °N, 158.74 °W | Updated 35 minutes ago

Scattered Clouds
Scattered Clouds
48 °F
Feels Like 48 °F
N
9
Wind Variable Wind from West

Today
High -- | Low -- °F
--% Chance of Precip.
Yesterday
High -- | Low -- °F
Precip. -- in
7:07 AM 10:01 PM
Full, 100% visible
Pressure 29.60 in
Visibility 10.0 miles
Clouds Few 5500 ft
Scattered Clouds 10000 ft
Dew Point 26 °F
Humidity 42%
Rainfall 0.05 in
Snow Depth Not available.
UV 3 out of 12
Pollen Not available.
Air Quality Not available.
Flu Activity Not available.
METAR PAKV 292253Z AUTO 26008KT 10SM FEW055 SCT100 09/M03 A2959 RMK AO2 SLP021 T00891033 TSNO
Pressure 29.60 in
Visibility 10.0 miles
Clouds Few 5500 ft
Scattered Clouds 10000 ft
Dew Point 26 °F
Humidity 42%
Rainfall 0.05 in
Snow Depth Not available.
UV 3 out of 12
Pollen Not available.
Air Quality Not available.
Flu Activity Not available.
METAR PAKV 292253Z AUTO 26008KT 10SM FEW055 SCT100 09/M03 A2959 RMK AO2 SLP021 T00891033 TSNO

10-Day Weather Forecast

×

Almanac

Astronomy

Aug. 29, 2015 Rise Set
Actual Time
Civil Twilight
Nautical Twilight
Astronomical Twilight
Moon
Length of Visible Light
Length of Day
Tomorrow will be .
, % of the Moon is Illuminated

Today's Extremes

State Highs State Lows

Community

WunderPhotos

Upload Photos

1,850,783 photos uploaded!

WunderBlogs® & News

Nearby

Air Quality

  Air Quality AQ Index Pollutant
Not available.

Snow Depth

Station Depth Elevation

Earthquake Activity

City Distance Mag. Time & Date
Minimum magnitude displayed is 2.5.

Coastal Water Temperatures

Place Temperature

Stations

Nearby Weather Stations

Station Location Temp. Windchill Dew Point Humidity Wind Precip. Elev Updated Type